sensor_id;sensor_type;location;lat;lon;timestamp;temperature;humidity
67196;DHT22;54122;53.538;49.366;2022-09-09T00:03:48;7.80;96.50
67196;DHT22;54122;53.538;49.366;2022-09-09T00:06:21;7.80;96.40
67196;DHT22;54122;53.538;49.366;2022-09-09T00:11:43;7.90;96.20
67196;DHT22;54122;53.538;49.366;2022-09-09T00:14:12;7.90;96.00
67196;DHT22;54122;53.538;49.366;2022-09-09T00:16:39;7.90;96.00
67196;DHT22;54122;53.538;49.366;2022-09-09T00:19:22;7.90;96.00
67196;DHT22;54122;53.538;49.366;2022-09-09T00:24:26;7.90;96.10
67196;DHT22;54122;53.538;49.366;2022-09-09T00:26:56;8.00;96.20
67196;DHT22;54122;53.538;49.366;2022-09-09T00:32:00;8.30;96.50
67196;DHT22;54122;53.538;49.366;2022-09-09T00:34:28;8.50;96.60
67196;DHT22;54122;53.538;49.366;2022-09-09T00:36:55;8.60;96.40
67196;DHT22;54122;53.538;49.366;2022-09-09T00:44:35;9.00;96.10
67196;DHT22;54122;53.538;49.366;2022-09-09T00:52:27;9.20;95.90
67196;DHT22;54122;53.538;49.366;2022-09-09T00:57:32;9.30;95.80
67196;DHT22;54122;53.538;49.366;2022-09-09T01:03:04;9.40;95.70
67196;DHT22;54122;53.538;49.366;2022-09-09T01:05:36;9.40;95.70
67196;DHT22;54122;53.538;49.366;2022-09-09T01:08:06;9.40;95.70
67196;DHT22;54122;53.538;49.366;2022-09-09T01:10:48;9.40;95.70
67196;DHT22;54122;53.538;49.366;2022-09-09T01:13:19;9.40;95.70
67196;DHT22;54122;53.538;49.366;2022-09-09T01:15:47;9.40;95.90
67196;DHT22;54122;53.538;49.366;2022-09-09T01:18:15;9.30;95.80
67196;DHT22;54122;53.538;49.366;2022-09-09T01:20:53;9.40;95.90
67196;DHT22;54122;53.538;49.366;2022-09-09T01:23:29;9.30;95.90
67196;DHT22;54122;53.538;49.366;2022-09-09T01:28:35;9.30;96.10
67196;DHT22;54122;53.538;49.366;2022-09-09T01:31:06;9.30;96.20
67196;DHT22;54122;53.538;49.366;2022-09-09T01:33:32;9.30;96.20
67196;DHT22;54122;53.538;49.366;2022-09-09T01:36:03;9.30;96.20
67196;DHT22;54122;53.538;49.366;2022-09-09T01:38:30;9.30;96.30
67196;DHT22;54122;53.538;49.366;2022-09-09T01:40:57;9.30;96.30
67196;DHT22;54122;53.538;49.366;2022-09-09T01:43:24;9.30;96.30
67196;DHT22;54122;53.538;49.366;2022-09-09T01:45:52;9.30;96.70
67196;DHT22;54122;53.538;49.366;2022-09-09T01:48:20;9.30;96.20
67196;DHT22;54122;53.538;49.366;2022-09-09T01:50:47;9.40;96.60
67196;DHT22;54122;53.538;49.366;2022-09-09T01:53:13;9.30;96.10
67196;DHT22;54122;53.538;49.366;2022-09-09T01:55:40;9.30;96.10
67196;DHT22;54122;53.538;49.366;2022-09-09T02:00:56;9.30;96.10
67196;DHT22;54122;53.538;49.366;2022-09-09T02:03:28;9.40;96.10
67196;DHT22;54122;53.538;49.366;2022-09-09T02:08:43;9.40;96.00
67196;DHT22;54122;53.538;49.366;2022-09-09T02:11:15;9.40;95.90
67196;DHT22;54122;53.538;49.366;2022-09-09T02:13:42;9.40;95.80
67196;DHT22;54122;53.538;49.366;2022-09-09T02:16:18;9.40;95.80
67196;DHT22;54122;53.538;49.366;2022-09-09T02:18:54;9.40;95.80
67196;DHT22;54122;53.538;49.366;2022-09-09T02:21:21;9.40;95.90
67196;DHT22;54122;53.538;49.366;2022-09-09T02:23:48;9.40;95.80
67196;DHT22;54122;53.538;49.366;2022-09-09T02:26:17;9.40;95.80
67196;DHT22;54122;53.538;49.366;2022-09-09T02:28:48;9.40;95.80
67196;DHT22;54122;53.538;49.366;2022-09-09T02:31:15;9.40;96.20
67196;DHT22;54122;53.538;49.366;2022-09-09T02:33:44;9.40;95.80
67196;DHT22;54122;53.538;49.366;2022-09-09T02:36:11;9.40;95.80
67196;DHT22;54122;53.538;49.366;2022-09-09T02:38:40;9.40;95.80
67196;DHT22;54122;53.538;49.366;2022-09-09T02:41:08;9.40;95.80
67196;DHT22;54122;53.538;49.366;2022-09-09T02:43:34;9.40;95.80
67196;DHT22;54122;53.538;49.366;2022-09-09T02:49:30;9.40;95.80
67196;DHT22;54122;53.538;49.366;2022-09-09T02:56:49;9.40;95.90
67196;DHT22;54122;53.538;49.366;2022-09-09T02:59:17;9.40;95.80
67196;DHT22;54122;53.538;49.366;2022-09-09T03:01:43;9.40;95.80
67196;DHT22;54122;53.538;49.366;2022-09-09T03:04:10;9.40;95.80
67196;DHT22;54122;53.538;49.366;2022-09-09T03:06:36;9.40;95.90
67196;DHT22;54122;53.538;49.366;2022-09-09T03:09:02;9.50;96.00
67196;DHT22;54122;53.538;49.366;2022-09-09T03:11:28;9.70;95.90
67196;DHT22;54122;53.538;49.366;2022-09-09T03:13:54;9.70;95.50
67196;DHT22;54122;53.538;49.366;2022-09-09T03:16:22;9.70;95.40
67196;DHT22;54122;53.538;49.366;2022-09-09T03:18:48;9.70;95.50
67196;DHT22;54122;53.538;49.366;2022-09-09T03:21:14;9.90;96.10
67196;DHT22;54122;53.538;49.366;2022-09-09T03:23:41;10.60;97.90
67196;DHT22;54122;53.538;49.366;2022-09-09T03:26:07;12.00;94.90
67196;DHT22;54122;53.538;49.366;2022-09-09T03:28:33;12.60;91.10
67196;DHT22;54122;53.538;49.366;2022-09-09T03:31:00;12.60;90.10
67196;DHT22;54122;53.538;49.366;2022-09-09T03:33:26;12.40;90.30
67196;DHT22;54122;53.538;49.366;2022-09-09T03:35:52;12.30;90.70
67196;DHT22;54122;53.538;49.366;2022-09-09T03:38:18;12.20;91.10
67196;DHT22;54122;53.538;49.366;2022-09-09T03:40:55;12.20;90.40
67196;DHT22;54122;53.538;49.366;2022-09-09T03:43:23;12.20;91.00
67196;DHT22;54122;53.538;49.366;2022-09-09T03:45:50;12.20;90.80
67196;DHT22;54122;53.538;49.366;2022-09-09T03:48:16;12.40;90.60
67196;DHT22;54122;53.538;49.366;2022-09-09T03:50:45;12.50;90.40
67196;DHT22;54122;53.538;49.366;2022-09-09T03:53:12;12.60;89.50
67196;DHT22;54122;53.538;49.366;2022-09-09T03:55:38;12.60;89.20
67196;DHT22;54122;53.538;49.366;2022-09-09T03:58:04;12.60;89.00
67196;DHT22;54122;53.538;49.366;2022-09-09T04:00:30;12.70;89.80
67196;DHT22;54122;53.538;49.366;2022-09-09T04:02:56;12.80;88.40
67196;DHT22;54122;53.538;49.366;2022-09-09T04:05:22;12.70;87.30
67196;DHT22;54122;53.538;49.366;2022-09-09T04:07:48;12.60;87.70
67196;DHT22;54122;53.538;49.366;2022-09-09T04:10:14;12.50;88.20
67196;DHT22;54122;53.538;49.366;2022-09-09T04:12:41;12.50;87.80
67196;DHT22;54122;53.538;49.366;2022-09-09T04:15:07;12.60;87.40
67196;DHT22;54122;53.538;49.366;2022-09-09T04:17:33;12.60;88.00
67196;DHT22;54122;53.538;49.366;2022-09-09T04:19:59;13.60;90.10
67196;DHT22;54122;53.538;49.366;2022-09-09T04:22:26;15.90;82.40
67196;DHT22;54122;53.538;49.366;2022-09-09T04:24:52;18.30;72.80
67196;DHT22;54122;53.538;49.366;2022-09-09T04:27:18;20.20;65.40
67196;DHT22;54122;53.538;49.366;2022-09-09T04:29:44;21.60;61.60
67196;DHT22;54122;53.538;49.366;2022-09-09T04:32:10;22.90;58.00
67196;DHT22;54122;53.538;49.366;2022-09-09T04:34:38;23.80;52.10
67196;DHT22;54122;53.538;49.366;2022-09-09T04:37:03;23.60;50.00
67196;DHT22;54122;53.538;49.366;2022-09-09T04:39:29;23.20;50.10
67196;DHT22;54122;53.538;49.366;2022-09-09T04:41:56;22.30;50.00
67196;DHT22;54122;53.538;49.366;2022-09-09T04:44:22;20.90;51.70
67196;DHT22;54122;53.538;49.366;2022-09-09T04:46:48;20.10;55.30
67196;DHT22;54122;53.538;49.366;2022-09-09T04:49:14;20.70;54.50
67196;DHT22;54122;53.538;49.366;2022-09-09T04:51:40;21.70;51.50
67196;DHT22;54122;53.538;49.366;2022-09-09T04:54:06;22.10;48.00
67196;DHT22;54122;53.538;49.366;2022-09-09T04:56:33;21.40;47.30
67196;DHT22;54122;53.538;49.366;2022-09-09T04:58:59;20.50;48.60
67196;DHT22;54122;53.538;49.366;2022-09-09T05:01:25;20.00;51.00
67196;DHT22;54122;53.538;49.366;2022-09-09T05:03:52;19.90;51.50
67196;DHT22;54122;53.538;49.366;2022-09-09T05:06:19;19.40;51.20
67196;DHT22;54122;53.538;49.366;2022-09-09T05:08:46;18.90;52.70
67196;DHT22;54122;53.538;49.366;2022-09-09T05:11:17;18.30;53.70
67196;DHT22;54122;53.538;49.366;2022-09-09T05:13:44;17.90;55.10
67196;DHT22;54122;53.538;49.366;2022-09-09T05:16:10;17.60;56.20
67196;DHT22;54122;53.538;49.366;2022-09-09T05:18:37;17.40;56.50
67196;DHT22;54122;53.538;49.366;2022-09-09T05:21:03;17.20;57.40
67196;DHT22;54122;53.538;49.366;2022-09-09T05:23:30;17.00;58.00
67196;DHT22;54122;53.538;49.366;2022-09-09T05:25:56;16.80;58.50
67196;DHT22;54122;53.538;49.366;2022-09-09T05:28:23;16.80;59.20
67196;DHT22;54122;53.538;49.366;2022-09-09T05:30:57;16.90;59.00
67196;DHT22;54122;53.538;49.366;2022-09-09T05:33:24;16.80;58.80
67196;DHT22;54122;53.538;49.366;2022-09-09T05:35:55;16.60;58.20
67196;DHT22;54122;53.538;49.366;2022-09-09T05:38:22;16.40;58.80
67196;DHT22;54122;53.538;49.366;2022-09-09T05:40:51;16.30;59.10
67196;DHT22;54122;53.538;49.366;2022-09-09T05:43:18;16.20;59.50
67196;DHT22;54122;53.538;49.366;2022-09-09T05:45:57;16.00;59.90
67196;DHT22;54122;53.538;49.366;2022-09-09T05:48:24;15.80;60.20
67196;DHT22;54122;53.538;49.366;2022-09-09T05:50:53;15.80;60.20
67196;DHT22;54122;53.538;49.366;2022-09-09T05:53:20;16.00;60.30
67196;DHT22;54122;53.538;49.366;2022-09-09T05:55:46;17.60;59.30
67196;DHT22;54122;53.538;49.366;2022-09-09T05:58:13;19.00;54.80
67196;DHT22;54122;53.538;49.366;2022-09-09T06:00:43;20.30;48.80
67196;DHT22;54122;53.538;49.366;2022-09-09T06:03:12;20.00;46.90
67196;DHT22;54122;53.538;49.366;2022-09-09T06:05:39;19.30;47.60
67196;DHT22;54122;53.538;49.366;2022-09-09T06:08:06;18.80;49.40
67196;DHT22;54122;53.538;49.366;2022-09-09T06:10:33;18.50;50.50
67196;DHT22;54122;53.538;49.366;2022-09-09T06:12:59;18.40;50.80
67196;DHT22;54122;53.538;49.366;2022-09-09T06:15:25;18.20;51.30
67196;DHT22;54122;53.538;49.366;2022-09-09T06:17:55;17.30;52.90
67196;DHT22;54122;53.538;49.366;2022-09-09T06:20:21;16.00;56.10
67196;DHT22;54122;53.538;49.366;2022-09-09T06:22:48;14.70;59.50
67196;DHT22;54122;53.538;49.366;2022-09-09T06:25:14;13.80;63.10
67196;DHT22;54122;53.538;49.366;2022-09-09T06:27:40;13.10;66.10
67196;DHT22;54122;53.538;49.366;2022-09-09T06:30:07;12.50;67.70
67196;DHT22;54122;53.538;49.366;2022-09-09T06:32:33;12.20;70.20
67196;DHT22;54122;53.538;49.366;2022-09-09T06:35:00;12.00;72.20
67196;DHT22;54122;53.538;49.366;2022-09-09T06:37:27;11.80;73.40
67196;DHT22;54122;53.538;49.366;2022-09-09T06:39:53;11.70;74.50
67196;DHT22;54122;53.538;49.366;2022-09-09T06:42:20;11.70;75.00
67196;DHT22;54122;53.538;49.366;2022-09-09T06:44:46;11.60;74.60
67196;DHT22;54122;53.538;49.366;2022-09-09T06:47:12;11.70;75.00
67196;DHT22;54122;53.538;49.366;2022-09-09T06:49:39;11.80;74.80
67196;DHT22;54122;53.538;49.366;2022-09-09T06:52:05;12.00;74.60
67196;DHT22;54122;53.538;49.366;2022-09-09T06:54:32;12.20;74.60
67196;DHT22;54122;53.538;49.366;2022-09-09T06:56:58;12.50;74.10
67196;DHT22;54122;53.538;49.366;2022-09-09T06:59:26;12.80;73.80
67196;DHT22;54122;53.538;49.366;2022-09-09T07:01:53;13.10;73.30
67196;DHT22;54122;53.538;49.366;2022-09-09T07:04:29;13.40;72.60
67196;DHT22;54122;53.538;49.366;2022-09-09T07:06:55;13.70;72.30
67196;DHT22;54122;53.538;49.366;2022-09-09T07:09:21;14.10;69.90
67196;DHT22;54122;53.538;49.366;2022-09-09T07:11:48;14.40;68.90
67196;DHT22;54122;53.538;49.366;2022-09-09T07:14:14;14.90;68.50
67196;DHT22;54122;53.538;49.366;2022-09-09T07:16:41;15.50;67.20
67196;DHT22;54122;53.538;49.366;2022-09-09T07:19:07;16.00;65.30
67196;DHT22;54122;53.538;49.366;2022-09-09T07:21:33;16.30;63.90
67196;DHT22;54122;53.538;49.366;2022-09-09T07:24:00;16.60;62.70
67196;DHT22;54122;53.538;49.366;2022-09-09T07:26:27;16.90;62.10
67196;DHT22;54122;53.538;49.366;2022-09-09T07:28:54;17.50;61.40
67196;DHT22;54122;53.538;49.366;2022-09-09T07:31:23;18.50;58.40
67196;DHT22;54122;53.538;49.366;2022-09-09T07:33:50;19.30;55.90
67196;DHT22;54122;53.538;49.366;2022-09-09T07:36:26;20.20;50.30
67196;DHT22;54122;53.538;49.366;2022-09-09T07:38:54;19.90;50.40
67196;DHT22;54122;53.538;49.366;2022-09-09T07:41:25;19.80;51.30
67196;DHT22;54122;53.538;49.366;2022-09-09T07:43:51;19.70;51.00
67196;DHT22;54122;53.538;49.366;2022-09-09T07:46:19;19.30;50.50
67196;DHT22;54122;53.538;49.366;2022-09-09T07:48:50;18.90;51.40
67196;DHT22;54122;53.538;49.366;2022-09-09T07:51:23;18.40;51.60
67196;DHT22;54122;53.538;49.366;2022-09-09T07:53:54;18.10;53.10
67196;DHT22;54122;53.538;49.366;2022-09-09T07:56:20;18.40;53.10
67196;DHT22;54122;53.538;49.366;2022-09-09T07:58:50;19.60;51.10
67196;DHT22;54122;53.538;49.366;2022-09-09T08:03:44;20.80;47.60
67196;DHT22;54122;53.538;49.366;2022-09-09T08:06:10;20.20;47.70
67196;DHT22;54122;53.538;49.366;2022-09-09T08:08:38;19.30;49.00
67196;DHT22;54122;53.538;49.366;2022-09-09T08:11:14;18.50;50.80
67196;DHT22;54122;53.538;49.366;2022-09-09T08:13:41;17.80;53.20
67196;DHT22;54122;53.538;49.366;2022-09-09T08:16:08;17.30;55.40
67196;DHT22;54122;53.538;49.366;2022-09-09T08:18:35;16.40;57.50
67196;DHT22;54122;53.538;49.366;2022-09-09T08:23:34;14.90;63.30
67196;DHT22;54122;53.538;49.366;2022-09-09T08:26:11;14.30;65.50
67196;DHT22;54122;53.538;49.366;2022-09-09T08:28:37;13.90;68.00
67196;DHT22;54122;53.538;49.366;2022-09-09T08:33:32;13.10;72.20
67196;DHT22;54122;53.538;49.366;2022-09-09T08:35:59;12.90;74.20
67196;DHT22;54122;53.538;49.366;2022-09-09T08:38:25;13.10;75.20
67196;DHT22;54122;53.538;49.366;2022-09-09T08:40:51;13.80;75.70
67196;DHT22;54122;53.538;49.366;2022-09-09T08:43:21;15.70;71.50
67196;DHT22;54122;53.538;49.366;2022-09-09T08:46:10;18.00;65.10
67196;DHT22;54122;53.538;49.366;2022-09-09T08:51:07;21.10;49.80
67196;DHT22;54122;53.538;49.366;2022-09-09T08:53:55;21.00;47.20
67196;DHT22;54122;53.538;49.366;2022-09-09T08:56:23;20.30;47.50
67196;DHT22;54122;53.538;49.366;2022-09-09T08:58:51;20.20;49.70
67196;DHT22;54122;53.538;49.366;2022-09-09T09:01:34;21.00;47.20
67196;DHT22;54122;53.538;49.366;2022-09-09T09:11:53;18.80;50.00
67196;DHT22;54122;53.538;49.366;2022-09-09T09:14:20;20.50;45.70
67196;DHT22;54122;53.538;49.366;2022-09-09T09:19:15;22.90;39.80
67196;DHT22;54122;53.538;49.366;2022-09-09T09:21:43;23.60;38.30
67196;DHT22;54122;53.538;49.366;2022-09-09T09:26:41;23.10;37.40
67196;DHT22;54122;53.538;49.366;2022-09-09T09:29:13;21.80;38.80
67196;DHT22;54122;53.538;49.366;2022-09-09T09:31:47;20.50;41.40
67196;DHT22;54122;53.538;49.366;2022-09-09T09:34:14;19.10;44.20
67196;DHT22;54122;53.538;49.366;2022-09-09T09:39:07;17.50;50.20
67196;DHT22;54122;53.538;49.366;2022-09-09T09:41:41;16.90;52.20
67196;DHT22;54122;53.538;49.366;2022-09-09T09:44:24;16.50;54.30
67196;DHT22;54122;53.538;49.366;2022-09-09T09:46:51;16.40;55.10
67196;DHT22;54122;53.538;49.366;2022-09-09T09:49:17;16.80;55.40
67196;DHT22;54122;53.538;49.366;2022-09-09T09:51:43;17.40;53.40
67196;DHT22;54122;53.538;49.366;2022-09-09T09:56:39;18.00;48.00
67196;DHT22;54122;53.538;49.366;2022-09-09T09:59:17;17.90;48.00
67196;DHT22;54122;53.538;49.366;2022-09-09T10:01:44;17.80;48.20
67196;DHT22;54122;53.538;49.366;2022-09-09T10:04:14;17.80;48.30
67196;DHT22;54122;53.538;49.366;2022-09-09T10:06:41;17.90;48.40
67196;DHT22;54122;53.538;49.366;2022-09-09T10:09:24;17.90;48.40
67196;DHT22;54122;53.538;49.366;2022-09-09T10:14:30;17.90;49.90
67196;DHT22;54122;53.538;49.366;2022-09-09T10:17:02;17.50;50.10
67196;DHT22;54122;53.538;49.366;2022-09-09T10:19:34;17.20;51.90
67196;DHT22;54122;53.538;49.366;2022-09-09T10:29:47;16.50;54.50
67196;DHT22;54122;53.538;49.366;2022-09-09T10:35:12;17.00;52.60
67196;DHT22;54122;53.538;49.366;2022-09-09T10:40:25;17.30;51.40
67196;DHT22;54122;53.538;49.366;2022-09-09T10:42:54;17.40;51.90
67196;DHT22;54122;53.538;49.366;2022-09-09T10:45:36;17.20;51.80
67196;DHT22;54122;53.538;49.366;2022-09-09T10:56:11;16.00;56.90
67196;DHT22;54122;53.538;49.366;2022-09-09T10:58:48;15.60;58.60
67196;DHT22;54122;53.538;49.366;2022-09-09T11:01:19;15.20;59.90
67196;DHT22;54122;53.538;49.366;2022-09-09T11:03:47;15.10;61.60
67196;DHT22;54122;53.538;49.366;2022-09-09T11:06:17;15.20;62.10
67196;DHT22;54122;53.538;49.366;2022-09-09T11:08:44;15.40;61.90
67196;DHT22;54122;53.538;49.366;2022-09-09T11:11:19;15.50;60.90
67196;DHT22;54122;53.538;49.366;2022-09-09T11:13:55;15.90;60.00
67196;DHT22;54122;53.538;49.366;2022-09-09T11:22:52;16.70;53.10
67196;DHT22;54122;53.538;49.366;2022-09-09T11:40:24;16.10;55.60
67196;DHT22;54122;53.538;49.366;2022-09-09T11:43:12;16.10;55.30
67196;DHT22;54122;53.538;49.366;2022-09-09T11:45:40;16.10;56.20
67196;DHT22;54122;53.538;49.366;2022-09-09T11:48:22;16.00;57.40
67196;DHT22;54122;53.538;49.366;2022-09-09T11:50:56;15.40;59.80
67196;DHT22;54122;53.538;49.366;2022-09-09T11:53:23;14.50;64.20
67196;DHT22;54122;53.538;49.366;2022-09-09T11:58:29;13.30;70.10
67196;DHT22;54122;53.538;49.366;2022-09-09T12:00:58;12.90;72.30
67196;DHT22;54122;53.538;49.366;2022-09-09T12:05:54;12.40;74.70
67196;DHT22;54122;53.538;49.366;2022-09-09T12:08:24;12.20;76.90
67196;DHT22;54122;53.538;49.366;2022-09-09T12:10:53;12.10;78.30
67196;DHT22;54122;53.538;49.366;2022-09-09T12:13:20;12.00;79.80
67196;DHT22;54122;53.538;49.366;2022-09-09T12:18:21;12.50;80.80
67196;DHT22;54122;53.538;49.366;2022-09-09T12:20:51;12.80;80.20
67196;DHT22;54122;53.538;49.366;2022-09-09T12:23:44;13.20;80.20
67196;DHT22;54122;53.538;49.366;2022-09-09T12:31:25;13.30;77.00
67196;DHT22;54122;53.538;49.366;2022-09-09T12:33:51;12.90;77.50
67196;DHT22;54122;53.538;49.366;2022-09-09T12:36:22;12.60;78.40
67196;DHT22;54122;53.538;49.366;2022-09-09T12:38:49;12.30;78.70
67196;DHT22;54122;53.538;49.366;2022-09-09T12:41:26;12.10;79.70
67196;DHT22;54122;53.538;49.366;2022-09-09T12:44:09;11.90;80.20
67196;DHT22;54122;53.538;49.366;2022-09-09T12:46:36;11.80;80.80
67196;DHT22;54122;53.538;49.366;2022-09-09T12:49:04;11.70;81.00
67196;DHT22;54122;53.538;49.366;2022-09-09T12:51:30;11.60;81.30
67196;DHT22;54122;53.538;49.366;2022-09-09T12:53:58;11.60;81.40
67196;DHT22;54122;53.538;49.366;2022-09-09T12:56:28;11.60;82.00
67196;DHT22;54122;53.538;49.366;2022-09-09T12:58:56;11.60;82.70
67196;DHT22;54122;53.538;49.366;2022-09-09T13:01:23;11.60;82.80
67196;DHT22;54122;53.538;49.366;2022-09-09T13:03:50;11.60;82.70
67196;DHT22;54122;53.538;49.366;2022-09-09T13:06:19;11.60;82.70
67196;DHT22;54122;53.538;49.366;2022-09-09T13:08:45;11.60;83.40
67196;DHT22;54122;53.538;49.366;2022-09-09T13:11:13;11.60;84.30
67196;DHT22;54122;53.538;49.366;2022-09-09T13:13:41;11.60;85.00
67196;DHT22;54122;53.538;49.366;2022-09-09T13:18:56;11.90;85.10
67196;DHT22;54122;53.538;49.366;2022-09-09T13:21:32;11.90;84.50
67196;DHT22;54122;53.538;49.366;2022-09-09T13:23:58;11.80;84.30
67196;DHT22;54122;53.538;49.366;2022-09-09T13:26:30;11.70;84.20
67196;DHT22;54122;53.538;49.366;2022-09-09T13:29:07;11.60;84.20
67196;DHT22;54122;53.538;49.366;2022-09-09T13:31:35;11.50;84.70
67196;DHT22;54122;53.538;49.366;2022-09-09T13:34:25;11.30;85.50
67196;DHT22;54122;53.538;49.366;2022-09-09T13:36:53;11.30;86.00
67196;DHT22;54122;53.538;49.366;2022-09-09T13:39:23;11.20;86.30
67196;DHT22;54122;53.538;49.366;2022-09-09T13:41:49;11.20;86.80
67196;DHT22;54122;53.538;49.366;2022-09-09T13:44:28;11.20;86.90
67196;DHT22;54122;53.538;49.366;2022-09-09T13:47:00;11.10;87.10
67196;DHT22;54122;53.538;49.366;2022-09-09T13:49:28;11.10;87.80
67196;DHT22;54122;53.538;49.366;2022-09-09T13:52:03;11.10;87.50
67196;DHT22;54122;53.538;49.366;2022-09-09T13:54:29;11.10;87.50
67196;DHT22;54122;53.538;49.366;2022-09-09T13:56:56;11.00;88.20
67196;DHT22;54122;53.538;49.366;2022-09-09T13:59:22;11.00;88.40
67196;DHT22;54122;53.538;49.366;2022-09-09T14:01:49;11.10;88.60
67196;DHT22;54122;53.538;49.366;2022-09-09T14:04:18;11.00;88.60
67196;DHT22;54122;53.538;49.366;2022-09-09T14:06:46;10.90;89.10
67196;DHT22;54122;53.538;49.366;2022-09-09T14:09:18;10.90;89.60
67196;DHT22;54122;53.538;49.366;2022-09-09T14:11:44;10.80;89.80
67196;DHT22;54122;53.538;49.366;2022-09-09T14:14:13;10.70;89.40
67196;DHT22;54122;53.538;49.366;2022-09-09T14:16:39;10.70;89.40
67196;DHT22;54122;53.538;49.366;2022-09-09T14:19:07;10.60;89.20
67196;DHT22;54122;53.538;49.366;2022-09-09T14:21:33;10.50;89.10
67196;DHT22;54122;53.538;49.366;2022-09-09T14:23:59;10.50;88.80
67196;DHT22;54122;53.538;49.366;2022-09-09T14:26:25;10.50;89.20
67196;DHT22;54122;53.538;49.366;2022-09-09T14:28:54;10.60;89.90
67196;DHT22;54122;53.538;49.366;2022-09-09T14:31:20;10.70;89.20
